Time;durP1;ratioP1;P1;durP2;ratioP2;P2;SDS_P1;SDS_P2;PMS_P1;PMS_P2;Temp;Humidity;BMP_temperature;BMP_pressure;BME280_temperature;BME280_humidity;BME280_pressure;Samples;Min_cycle;Max_cycle;Signal;HPM_P1;HPM_P2
2023/09/01 00:08:24;;;;;;;35.30;25.23;;;10.80;99.90;;;;;;21066116;28;20040;-59
2023/09/01 00:18:25;;;;;;;19.33;15.65;;;11.00;99.90;;;;;;21065521;28;20121;-60
2023/09/01 00:28:27;;;;;;;13.43;10.00;;;11.20;99.90;;;;;;21062445;28;20036;-60
2023/09/01 00:38:31;;;;;;;12.20;6.22;;;11.30;99.90;;;;;;21043407;28;20036;-60
2023/09/01 00:48:32;;;;;;;11.20;8.30;;;11.10;99.90;;;;;;21061162;28;20028;-52
2023/09/01 00:58:34;;;;;;;20.55;13.48;;;10.90;99.90;;;;;;21060082;28;20542;-60
2023/09/01 01:09:08;;;;;;;19.70;14.02;;;10.70;99.90;;;;;;21058712;28;20040;-61
2023/09/01 01:19:23;;;;;;;22.42;17.45;;;10.60;99.90;;;;;;21040791;28;20039;-60
2023/09/01 01:29:25;;;;;;;27.10;19.63;;;10.60;99.90;;;;;;21044711;28;20040;-51
2023/09/01 01:39:31;;;;;;;20.08;14.70;;;10.60;99.90;;;;;;21057355;28;20085;-60
2023/09/01 01:49:34;;;;;;;24.98;18.88;;;10.70;99.90;;;;;;21056806;28;20117;-52
2023/09/01 01:59:36;;;;;;;24.02;16.88;;;10.70;99.90;;;;;;21054918;28;20381;-61
2023/09/01 02:09:38;;;;;;;28.02;18.63;;;10.60;99.90;;;;;;21030238;28;20062;-49
2023/09/01 02:19:39;;;;;;;19.83;15.32;;;10.50;99.90;;;;;;20970415;28;20033;-60
2023/09/01 02:29:41;;;;;;;28.65;19.02;;;10.30;99.90;;;;;;21024301;28;20094;-48
2023/09/01 02:39:43;;;;;;;23.13;16.42;;;10.20;99.90;;;;;;21006505;28;20036;-49
2023/09/01 02:49:45;;;;;;;18.55;14.40;;;10.30;99.90;;;;;;21051786;28;20503;-53
2023/09/01 02:59:47;;;;;;;13.73;10.38;;;10.30;99.90;;;;;;21032532;28;20110;-51
2023/09/01 03:09:49;;;;;;;17.88;11.82;;;10.10;99.90;;;;;;21032277;28;20036;-60
2023/09/01 03:19:51;;;;;;;15.07;11.07;;;9.90;99.90;;;;;;21013103;28;20032;-48
2023/09/01 03:29:56;;;;;;;20.23;13.90;;;9.90;99.90;;;;;;21025925;28;20523;-61
2023/09/01 03:40:11;;;;;;;23.63;15.85;;;9.90;99.90;;;;;;21026664;28;20031;-48
2023/09/01 03:50:13;;;;;;;24.42;16.38;;;10.00;99.90;;;;;;21032521;28;20058;-53
2023/09/01 04:00:16;;;;;;;21.98;15.38;;;10.10;99.90;;;;;;21011053;28;20105;-51
2023/09/01 04:10:17;;;;;;;23.95;16.83;;;10.00;99.90;;;;;;21032031;28;20036;-49
2023/09/01 04:20:20;;;;;;;22.60;14.68;;;10.10;99.90;;;;;;21033088;28;20041;-61
2023/09/01 04:30:25;;;;;;;18.27;13.20;;;10.20;99.90;;;;;;21010399;28;20054;-61
2023/09/01 04:40:27;;;;;;;14.50;11.20;;;10.10;99.90;;;;;;21017263;28;20039;-50
2023/09/01 04:50:29;;;;;;;15.98;10.13;;;10.10;99.90;;;;;;20982262;28;20020;-51
2023/09/01 05:00:31;;;;;;;14.88;10.75;;;10.10;99.90;;;;;;21012819;28;20442;-49
2023/09/01 05:10:33;;;;;;;12.73;9.43;;;10.10;99.90;;;;;;21008065;28;20071;-61
2023/09/01 05:20:35;;;;;;;9.80;7.50;;;10.20;99.90;;;;;;21007438;28;20036;-48
2023/09/01 05:30:37;;;;;;;9.43;6.10;;;10.30;99.90;;;;;;20987726;28;20032;-53
2023/09/01 05:40:40;;;;;;;6.78;5.00;;;10.50;99.90;;;;;;20990675;28;20029;-52
2023/09/01 05:50:43;;;;;;;6.90;3.80;;;10.70;99.90;;;;;;21001570;28;20381;-51
2023/09/01 06:00:50;;;;;;;8.10;4.03;;;11.00;99.90;;;;;;21004614;28;20040;-53
2023/09/01 06:11:05;;;;;;;6.05;4.20;;;11.30;99.90;;;;;;21016928;28;20165;-51
2023/09/01 06:21:10;;;;;;;8.65;6.50;;;11.60;99.90;;;;;;21027111;28;20576;-51
2023/09/01 06:31:16;;;;;;;9.77;6.70;;;11.80;99.90;;;;;;21019379;28;20024;-53
2023/09/01 06:41:20;;;;;;;7.00;6.22;;;11.80;99.90;;;;;;21002826;28;20102;-62
2023/09/01 06:51:22;;;;;;;7.72;5.75;;;13.00;99.90;;;;;;21001067;28;20176;-54
2023/09/01 07:01:27;;;;;;;8.02;6.03;;;14.50;99.90;;;;;;21001011;28;20040;-64
2023/09/01 07:11:30;;;;;;;9.73;7.22;;;16.00;99.90;;;;;;21003295;28;20033;-64
2023/09/01 07:21:33;;;;;;;9.73;6.47;;;16.70;99.90;;;;;;21002043;28;20504;-64
2023/09/01 07:31:36;;;;;;;7.97;6.20;;;17.40;99.90;;;;;;21007791;28;20555;-64
2023/09/01 07:41:41;;;;;;;7.53;6.80;;;17.80;99.90;;;;;;20999211;28;20490;-64
2023/09/01 07:51:49;;;;;;;7.30;5.95;;;17.80;99.90;;;;;;20997838;28;20032;-64
2023/09/01 08:01:53;;;;;;;6.95;6.05;;;18.30;99.90;;;;;;21013771;28;20049;-56
2023/09/01 08:11:56;;;;;;;11.45;6.53;;;19.10;99.90;;;;;;21032568;28;20032;-55
2023/09/01 08:21:59;;;;;;;8.27;5.97;;;19.20;99.90;;;;;;21001005;28;20044;-59
2023/09/01 08:32:05;;;;;;;6.90;6.20;;;18.90;99.90;;;;;;21014912;28;20035;-62
2023/09/01 08:42:11;;;;;;;8.90;7.43;;;18.70;99.90;;;;;;21020676;28;20058;-63
2023/09/01 08:52:20;;;;;;;9.90;8.80;;;18.70;99.90;;;;;;21012034;28;20047;-61
2023/09/01 09:02:26;;;;;;;11.63;8.98;;;18.70;99.90;;;;;;21028884;28;20048;-64
2023/09/01 09:12:43;;;;;;;12.52;9.38;;;18.30;99.90;;;;;;21013861;28;20052;-59
2023/09/01 09:22:56;;;;;;;12.82;10.68;;;17.30;99.90;;;;;;20994011;28;20078;-61
2023/09/01 09:33:07;;;;;;;11.30;10.10;;;17.60;99.90;;;;;;21018106;28;20024;-62
2023/09/01 09:43:13;;;;;;;15.93;13.73;;;18.30;99.90;;;;;;20968859;28;20097;-59
2023/09/01 09:53:21;;;;;;;13.43;10.68;;;18.20;99.90;;;;;;21018082;28;20375;-61
2023/09/01 10:03:29;;;;;;;11.38;10.27;;;20.20;99.90;;;;;;21001154;28;20047;-63
2023/09/01 10:13:32;;;;;;;11.75;9.82;;;21.10;99.90;;;;;;21016837;28;20040;-62
2023/09/01 10:23:37;;;;;;;13.38;11.98;;;19.80;99.90;;;;;;20992635;28;20389;-63
2023/09/01 10:33:40;;;;;;;14.85;13.30;;;18.80;99.90;;;;;;21017294;28;20724;-61
2023/09/01 10:43:54;;;;;;;14.18;12.73;;;18.60;99.90;;;;;;21017317;28;20036;-62
2023/09/01 10:54:02;;;;;;;15.25;12.35;;;18.60;99.90;;;;;;21019041;28;20025;-52
2023/09/01 11:04:19;;;;;;;17.25;13.43;;;18.10;99.90;;;;;;20992088;28;20102;-63
2023/09/01 11:14:24;;;;;;;19.42;16.17;;;17.90;99.90;;;;;;21028144;28;20032;-61
2023/09/01 11:24:27;;;;;;;15.13;12.88;;;17.60;99.90;;;;;;21014094;28;20036;-61
2023/09/01 11:34:41;;;;;;;17.70;15.73;;;17.90;99.90;;;;;;21014343;28;20097;-51
2023/09/01 11:44:51;;;;;;;13.40;11.90;;;17.60;99.90;;;;;;21023585;28;20090;-62
2023/09/01 11:54:56;;;;;;;12.90;11.60;;;18.30;99.90;;;;;;21015297;28;20039;-63
2023/09/01 12:05:02;;;;;;;11.38;10.23;;;18.80;99.90;;;;;;21037399;28;20044;-62
2023/09/01 12:15:11;;;;;;;12.27;11.07;;;19.30;99.90;;;;;;21034794;28;20085;-62
2023/09/01 12:25:14;;;;;;;12.38;11.13;;;18.80;99.90;;;;;;21026061;28;20082;-55
2023/09/01 12:35:18;;;;;;;12.43;10.23;;;19.40;99.90;;;;;;21012713;28;20040;-62
2023/09/01 12:45:25;;;;;;;11.07;9.30;;;20.20;99.90;;;;;;21013751;28;20333;-56
2023/09/01 12:55:35;;;;;;;11.20;8.43;;;21.00;99.90;;;;;;20968656;28;20185;-54
2023/09/01 13:05:40;;;;;;;9.27;7.47;;;20.10;99.90;;;;;;21040029;28;20044;-53
2023/09/01 13:15:48;;;;;;;8.70;7.38;;;19.80;99.90;;;;;;21003192;28;20543;-63
2023/09/01 13:25:56;;;;;;;10.52;8.00;;;19.60;99.90;;;;;;21019655;28;20575;-63
2023/09/01 13:36:04;;;;;;;9.95;7.63;;;19.40;99.90;;;;;;21008445;28;20035;-55
2023/09/01 13:46:28;;;;;;;12.05;8.15;;;19.70;99.90;;;;;;21016451;28;20040;-63
2023/09/01 13:56:32;;;;;;;9.30;7.85;;;19.50;99.90;;;;;;21012557;28;20485;-61
2023/09/01 14:06:35;;;;;;;11.70;9.85;;;20.10;99.90;;;;;;21034560;28;20160;-53
2023/09/01 14:16:40;;;;;;;11.43;10.25;;;19.30;99.90;;;;;;21018965;28;20028;-54
2023/09/01 14:26:51;;;;;;;13.23;10.30;;;18.70;99.90;;;;;;21014679;28;20040;-63
2023/09/01 14:36:57;;;;;;;11.45;10.30;;;18.70;99.90;;;;;;20960710;28;20074;-54
2023/09/01 14:47:01;;;;;;;10.23;9.00;;;18.40;99.90;;;;;;21025188;28;20077;-63
2023/09/01 14:57:04;;;;;;;11.70;10.50;;;18.50;99.90;;;;;;21016964;28;20036;-63
2023/09/01 15:07:08;;;;;;;10.07;9.10;;;18.90;99.90;;;;;;21009497;28;20455;-54
2023/09/01 15:17:11;;;;;;;13.43;11.30;;;18.30;99.90;;;;;;21001742;28;20033;-62
2023/09/01 15:27:15;;;;;;;14.90;10.35;;;17.90;99.90;;;;;;20999223;28;20098;-61
2023/09/01 15:37:19;;;;;;;11.05;8.48;;;17.60;99.90;;;;;;20995621;28;20094;-62
2023/09/01 15:47:26;;;;;;;13.68;10.10;;;18.10;99.90;;;;;;20995383;28;20094;-62
2023/09/01 15:57:29;;;;;;;14.88;10.45;;;17.80;99.90;;;;;;20986346;28;20044;-63
2023/09/01 16:07:32;;;;;;;10.88;8.73;;;17.60;99.90;;;;;;21004822;28;20047;-57
2023/09/01 16:17:38;;;;;;;13.48;9.80;;;17.20;99.90;;;;;;21011700;28;20554;-62
2023/09/01 16:27:43;;;;;;;11.82;10.57;;;16.70;99.90;;;;;;20980176;28;20464;-62
2023/09/01 16:37:48;;;;;;;15.13;13.07;;;16.10;99.90;;;;;;21002155;28;20484;-51
2023/09/01 16:47:55;;;;;;;19.13;15.70;;;15.70;99.90;;;;;;21043916;28;20032;-61
2023/09/01 16:58:01;;;;;;;14.93;13.07;;;15.30;99.90;;;;;;21043328;28;20085;-60
2023/09/01 17:08:05;;;;;;;22.98;20.42;;;15.00;99.90;;;;;;21040320;28;20052;-61
2023/09/01 17:18:09;;;;;;;22.20;19.58;;;14.50;99.90;;;;;;21041850;28;20542;-61
2023/09/01 17:28:17;;;;;;;24.43;20.87;;;14.20;99.90;;;;;;21056966;28;20070;-61
2023/09/01 17:38:21;;;;;;;20.05;17.85;;;13.80;99.90;;;;;;21039691;28;20040;-62
2023/09/01 17:48:24;;;;;;;26.25;21.20;;;13.50;99.90;;;;;;21057259;28;20032;-60
2023/09/01 17:58:28;;;;;;;35.00;26.85;;;13.30;99.90;;;;;;21041651;28;20031;-53
2023/09/01 18:08:34;;;;;;;30.95;25.10;;;13.10;99.90;;;;;;21055140;28;20101;-61
2023/09/01 18:18:39;;;;;;;30.60;22.85;;;12.80;99.90;;;;;;21054934;28;20058;-61
2023/09/01 18:28:47;;;;;;;36.92;27.88;;;12.60;99.90;;;;;;21054014;28;20431;-51
2023/09/01 18:38:58;;;;;;;32.60;25.33;;;12.50;99.90;;;;;;21034567;28;20067;-53
2023/09/01 18:49:13;;;;;;;32.88;26.05;;;12.30;99.90;;;;;;21052906;28;20385;-50
2023/09/01 18:59:21;;;;;;;33.35;26.50;;;12.20;99.90;;;;;;21051581;28;20030;-61
2023/09/01 19:09:29;;;;;;;32.25;26.88;;;12.20;99.90;;;;;;21048742;28;20089;-61
2023/09/01 19:19:38;;;;;;;41.15;30.67;;;12.30;99.90;;;;;;21050761;28;20058;-61
2023/09/01 19:29:50;;;;;;;39.45;29.02;;;12.10;99.90;;;;;;21049937;28;20062;-61
2023/09/01 19:39:56;;;;;;;39.70;31.10;;;12.00;99.90;;;;;;21031965;28;20032;-62
2023/09/01 19:50:11;;;;;;;40.78;30.92;;;12.00;99.90;;;;;;21014556;28;20490;-61
2023/09/01 20:00:26;;;;;;;45.38;33.50;;;12.00;99.90;;;;;;21028472;28;20381;-61
2023/09/01 20:10:35;;;;;;;44.83;32.00;;;12.00;99.90;;;;;;21030495;28;20036;-51
2023/09/01 20:20:39;;;;;;;46.55;33.60;;;11.90;99.90;;;;;;21062484;28;20024;-62
2023/09/01 20:30:45;;;;;;;52.25;36.45;;;11.80;99.90;;;;;;21055760;28;20090;-52
2023/09/01 20:40:52;;;;;;;49.78;36.92;;;11.80;99.90;;;;;;21008923;28;20040;-52
2023/09/01 20:50:57;;;;;;;59.10;41.30;;;11.80;99.90;;;;;;21061481;28;20062;-61
2023/09/01 21:01:02;;;;;;;52.97;36.20;;;11.70;99.90;;;;;;21060630;28;20121;-61
2023/09/01 21:11:12;;;;;;;53.58;39.10;;;11.70;99.90;;;;;;21059770;28;20085;-61
2023/09/01 21:21:22;;;;;;;53.58;37.30;;;11.70;99.90;;;;;;21024074;28;20040;-51
2023/09/01 21:31:27;;;;;;;53.75;36.65;;;11.70;99.90;;;;;;21058196;28;20047;-61
2023/09/01 21:41:32;;;;;;;53.22;35.95;;;11.60;99.90;;;;;;21039206;28;20443;-62
2023/09/01 21:51:37;;;;;;;50.42;36.28;;;11.50;99.90;;;;;;21057001;28;20036;-50
2023/09/01 22:01:39;;;;;;;35.30;26.02;;;11.60;99.90;;;;;;21056397;28;20056;-62
2023/09/01 22:11:42;;;;;;;28.48;18.50;;;11.50;99.90;;;;;;21037335;28;20039;-62
2023/09/01 22:21:57;;;;;;;23.42;15.60;;;11.40;99.90;;;;;;21054922;28;20085;-61
2023/09/01 22:32:09;;;;;;;17.83;13.65;;;11.30;99.90;;;;;;21035619;28;20048;-62
2023/09/01 22:42:13;;;;;;;20.42;15.38;;;11.30;99.90;;;;;;20998461;28;20029;-61
2023/09/01 22:52:16;;;;;;;26.30;17.85;;;11.30;99.90;;;;;;21036412;28;20028;-62
2023/09/01 23:02:21;;;;;;;41.42;27.77;;;11.30;99.90;;;;;;21050671;28;20097;-62
2023/09/01 23:12:23;;;;;;;41.30;29.85;;;11.20;99.90;;;;;;21031092;28;20192;-51
2023/09/01 23:22:26;;;;;;;43.53;30.38;;;11.00;99.90;;;;;;21050354;28;20028;-61
2023/09/01 23:32:28;;;;;;;22.55;17.13;;;11.20;99.90;;;;;;21050276;28;20032;-52
2023/09/01 23:42:30;;;;;;;21.45;14.30;;;11.40;99.90;;;;;;21049607;28;20439;-62
2023/09/01 23:52:32;;;;;;;20.70;15.55;;;11.20;99.90;;;;;;21059548;28;20036;-62
